sensor_id;sensor_type;location;lat;lon;timestamp;pressure;altitude;pressure_sealevel;temperature;humidity
13612;BME280;6877;51.436;6.774;2023-04-19T00:02:01;102213.97;;;9.81;80.04
13612;BME280;6877;51.436;6.774;2023-04-19T00:04:28;102218.34;;;9.82;80.25
13612;BME280;6877;51.436;6.774;2023-04-19T00:06:55;102206.13;;;9.78;80.34
13612;BME280;6877;51.436;6.774;2023-04-19T00:09:21;102211.34;;;9.78;80.51
13612;BME280;6877;51.436;6.774;2023-04-19T00:11:53;102216.56;;;9.78;80.60
13612;BME280;6877;51.436;6.774;2023-04-19T00:14:24;102209.59;;;9.80;81.03
13612;BME280;6877;51.436;6.774;2023-04-19T00:16:51;102216.56;;;9.80;81.13
13612;BME280;6877;51.436;6.774;2023-04-19T00:19:22;102223.56;;;9.82;81.22
13612;BME280;6877;51.436;6.774;2023-04-19T00:21:49;102211.38;;;9.81;81.42
13612;BME280;6877;51.436;6.774;2023-04-19T00:24:20;102214.88;;;9.86;81.82
13612;BME280;6877;51.436;6.774;2023-04-19T00:26:47;102208.84;;;9.90;81.75
13612;BME280;6877;51.436;6.774;2023-04-19T00:29:13;102214.06;;;9.90;81.84
13612;BME280;6877;51.436;6.774;2023-04-19T00:31:39;102211.47;;;9.93;81.84
13612;BME280;6877;51.436;6.774;2023-04-19T00:34:06;102210.56;;;9.93;81.99
13612;BME280;6877;51.436;6.774;2023-04-19T00:36:32;102206.25;;;9.93;82.24
13612;BME280;6877;51.436;6.774;2023-04-19T00:39:04;102207.13;;;9.97;82.51
13612;BME280;6877;51.436;6.774;2023-04-19T00:41:36;102202.78;;;9.97;82.84
13612;BME280;6877;51.436;6.774;2023-04-19T00:44:02;102200.19;;;10.01;82.89
13612;BME280;6877;51.436;6.774;2023-04-19T00:46:36;102201.06;;;10.03;83.07
13612;BME280;6877;51.436;6.774;2023-04-19T00:49:05;102197.59;;;10.04;83.29
13612;BME280;6877;51.436;6.774;2023-04-19T00:51:33;102200.22;;;10.07;83.47
13612;BME280;6877;51.436;6.774;2023-04-19T00:54:01;102199.34;;;10.06;83.53
13612;BME280;6877;51.436;6.774;2023-04-19T00:56:34;102190.63;;;10.06;83.68
13612;BME280;6877;51.436;6.774;2023-04-19T00:59:05;102195.00;;;10.07;83.89
13612;BME280;6877;51.436;6.774;2023-04-19T01:01:33;102191.50;;;10.06;84.16
13612;BME280;6877;51.436;6.774;2023-04-19T01:04:04;102194.13;;;10.08;84.36
13612;BME280;6877;51.436;6.774;2023-04-19T01:06:32;102189.78;;;10.11;84.58
13612;BME280;6877;51.436;6.774;2023-04-19T01:08:59;102194.13;;;10.11;84.57
13612;BME280;6877;51.436;6.774;2023-04-19T01:11:26;102190.66;;;10.09;84.75
13612;BME280;6877;51.436;6.774;2023-04-19T01:13:54;102188.03;;;10.12;84.95
13612;BME280;6877;51.436;6.774;2023-04-19T01:16:21;102189.81;;;10.16;85.08
13612;BME280;6877;51.436;6.774;2023-04-19T01:18:53;102181.97;;;10.16;85.18
13612;BME280;6877;51.436;6.774;2023-04-19T01:21:19;102181.97;;;10.16;85.12
13612;BME280;6877;51.436;6.774;2023-04-19T01:23:52;102180.22;;;10.16;85.25
13612;BME280;6877;51.436;6.774;2023-04-19T01:26:20;102179.34;;;10.13;85.60
13612;BME280;6877;51.436;6.774;2023-04-19T01:28:47;102178.50;;;10.15;85.41
13612;BME280;6877;51.436;6.774;2023-04-19T01:31:13;102168.00;;;10.14;85.54
13612;BME280;6877;51.436;6.774;2023-04-19T01:33:40;102178.47;;;10.14;85.72
13612;BME280;6877;51.436;6.774;2023-04-19T01:36:11;102174.09;;;10.13;85.49
13612;BME280;6877;51.436;6.774;2023-04-19T01:38:38;102178.47;;;10.14;85.57
13612;BME280;6877;51.436;6.774;2023-04-19T01:41:04;102171.50;;;10.16;85.52
13612;BME280;6877;51.436;6.774;2023-04-19T01:43:31;102175.84;;;10.14;85.46
13612;BME280;6877;51.436;6.774;2023-04-19T01:45:58;102167.09;;;10.12;85.36
13612;BME280;6877;51.436;6.774;2023-04-19T01:48:24;102158.38;;;10.11;85.37
13612;BME280;6877;51.436;6.774;2023-04-19T01:50:51;102163.63;;;10.10;85.34
13612;BME280;6877;51.436;6.774;2023-04-19T01:53:23;102171.47;;;10.10;85.12
13612;BME280;6877;51.436;6.774;2023-04-19T01:55:49;102168.84;;;10.07;84.94
13612;BME280;6877;51.436;6.774;2023-04-19T01:58:21;102174.06;;;10.07;85.03
13612;BME280;6877;51.436;6.774;2023-04-19T02:00:47;102171.44;;;10.04;84.91
13612;BME280;6877;51.436;6.774;2023-04-19T02:03:13;102172.28;;;10.01;85.00
13612;BME280;6877;51.436;6.774;2023-04-19T02:05:45;102173.09;;;9.95;84.88
13612;BME280;6877;51.436;6.774;2023-04-19T02:08:17;102152.06;;;9.80;85.25
13612;BME280;6877;51.436;6.774;2023-04-19T02:10:43;102153.72;;;9.64;85.76
13612;BME280;6877;51.436;6.774;2023-04-19T02:13:09;102155.31;;;9.48;86.51
13612;BME280;6877;51.436;6.774;2023-04-19T02:15:36;102155.28;;;9.44;87.00
13612;BME280;6877;51.436;6.774;2023-04-19T02:18:02;102156.09;;;9.38;87.46
13612;BME280;6877;51.436;6.774;2023-04-19T02:20:31;102156.91;;;9.28;87.65
13612;BME280;6877;51.436;6.774;2023-04-19T02:23:02;102147.22;;;9.19;88.31
13612;BME280;6877;51.436;6.774;2023-04-19T02:25:29;102152.38;;;9.12;88.56
13612;BME280;6877;51.436;6.774;2023-04-19T02:27:56;102155.81;;;9.08;89.00
13612;BME280;6877;51.436;6.774;2023-04-19T02:30:22;102157.56;;;9.05;89.18
13612;BME280;6877;51.436;6.774;2023-04-19T02:32:53;102153.09;;;8.98;89.15
13612;BME280;6877;51.436;6.774;2023-04-19T02:35:25;102151.28;;;8.91;90.03
13612;BME280;6877;51.436;6.774;2023-04-19T02:37:51;102148.59;;;8.82;90.29
13612;BME280;6877;51.436;6.774;2023-04-19T02:40:23;102148.59;;;8.80;90.28
13612;BME280;6877;51.436;6.774;2023-04-19T02:42:51;102149.41;;;8.76;90.59
13612;BME280;6877;51.436;6.774;2023-04-19T02:45:17;102150.25;;;8.74;90.93
13612;BME280;6877;51.436;6.774;2023-04-19T02:47:49;102138.88;;;8.69;91.04
13612;BME280;6877;51.436;6.774;2023-04-19T02:50:20;102142.34;;;8.68;91.21
13612;BME280;6877;51.436;6.774;2023-04-19T02:52:47;102149.34;;;8.72;91.25
13612;BME280;6877;51.436;6.774;2023-04-19T02:55:13;102139.88;;;8.81;90.61
13612;BME280;6877;51.436;6.774;2023-04-19T02:57:44;102136.56;;;8.96;89.77
13612;BME280;6877;51.436;6.774;2023-04-19T03:00:11;102140.22;;;9.15;88.44
13612;BME280;6877;51.436;6.774;2023-04-19T03:02:40;102131.66;;;9.27;87.37
13612;BME280;6877;51.436;6.774;2023-04-19T03:05:09;102134.31;;;9.36;86.55
13612;BME280;6877;51.436;6.774;2023-04-19T03:07:40;102130.97;;;9.52;85.23
13612;BME280;6877;51.436;6.774;2023-04-19T03:10:12;102129.28;;;9.61;84.22
13612;BME280;6877;51.436;6.774;2023-04-19T03:12:38;102126.78;;;9.71;83.09
13612;BME280;6877;51.436;6.774;2023-04-19T03:15:06;102125.03;;;9.77;82.72
13612;BME280;6877;51.436;6.774;2023-04-19T03:17:36;102125.94;;;9.80;81.86
13612;BME280;6877;51.436;6.774;2023-04-19T03:20:03;102127.72;;;9.86;81.18
13612;BME280;6877;51.436;6.774;2023-04-19T03:22:37;102132.09;;;9.87;81.24
13612;BME280;6877;51.436;6.774;2023-04-19T03:25:04;102132.09;;;9.88;81.30
13612;BME280;6877;51.436;6.774;2023-04-19T03:27:33;102129.47;;;9.88;81.09
13612;BME280;6877;51.436;6.774;2023-04-19T03:29:59;102128.59;;;9.89;81.16
13612;BME280;6877;51.436;6.774;2023-04-19T03:32:26;102126.00;;;9.89;81.15
13612;BME280;6877;51.436;6.774;2023-04-19T03:34:52;102128.59;;;9.86;81.09
13612;BME280;6877;51.436;6.774;2023-04-19T03:37:19;102128.59;;;9.89;80.76
13612;BME280;6877;51.436;6.774;2023-04-19T03:39:45;102130.38;;;9.90;80.18
13612;BME280;6877;51.436;6.774;2023-04-19T03:42:12;102127.75;;;9.89;79.69
13612;BME280;6877;51.436;6.774;2023-04-19T03:44:38;102126.88;;;9.88;79.49
13612;BME280;6877;51.436;6.774;2023-04-19T03:47:04;102133.84;;;9.88;79.33
13612;BME280;6877;51.436;6.774;2023-04-19T03:49:31;102139.06;;;9.89;79.08
13612;BME280;6877;51.436;6.774;2023-04-19T03:51:57;102131.25;;;9.91;78.65
13612;BME280;6877;51.436;6.774;2023-04-19T03:54:28;102137.34;;;9.87;78.95
13612;BME280;6877;51.436;6.774;2023-04-19T03:56:55;102132.09;;;9.84;78.75
13612;BME280;6877;51.436;6.774;2023-04-19T03:59:22;102132.06;;;9.81;78.25
13612;BME280;6877;51.436;6.774;2023-04-19T04:01:48;102118.97;;;9.78;78.18
13612;BME280;6877;51.436;6.774;2023-04-19T04:04:15;102124.19;;;9.78;77.95
13612;BME280;6877;51.436;6.774;2023-04-19T04:06:41;102120.69;;;9.77;77.26
13612;BME280;6877;51.436;6.774;2023-04-19T04:09:12;102132.00;;;9.76;76.42
13612;BME280;6877;51.436;6.774;2023-04-19T04:11:39;102129.41;;;9.74;75.87
13612;BME280;6877;51.436;6.774;2023-04-19T04:14:06;102128.50;;;9.72;75.42
13612;BME280;6877;51.436;6.774;2023-04-19T04:16:34;102129.34;;;9.70;75.28
13612;BME280;6877;51.436;6.774;2023-04-19T04:19:03;102133.69;;;9.65;74.64
13612;BME280;6877;51.436;6.774;2023-04-19T04:21:30;102128.41;;;9.59;74.61
13612;BME280;6877;51.436;6.774;2023-04-19T04:23:56;102136.22;;;9.52;74.55
13612;BME280;6877;51.436;6.774;2023-04-19T04:26:23;102134.38;;;9.45;74.52
13612;BME280;6877;51.436;6.774;2023-04-19T04:28:50;102136.91;;;9.35;74.80
13612;BME280;6877;51.436;6.774;2023-04-19T04:31:17;102132.47;;;9.23;74.86
13612;BME280;6877;51.436;6.774;2023-04-19T04:33:43;102140.19;;;9.14;74.23
13612;BME280;6877;51.436;6.774;2023-04-19T04:36:17;102139.28;;;9.05;74.08
13612;BME280;6877;51.436;6.774;2023-04-19T04:38:43;102149.69;;;9.02;73.28
13612;BME280;6877;51.436;6.774;2023-04-19T04:41:10;102146.06;;;8.91;73.28
13612;BME280;6877;51.436;6.774;2023-04-19T04:43:39;102145.16;;;8.88;73.07
13612;BME280;6877;51.436;6.774;2023-04-19T04:46:06;102142.53;;;8.83;72.84
13612;BME280;6877;51.436;6.774;2023-04-19T04:48:33;102139.84;;;8.77;72.69
13612;BME280;6877;51.436;6.774;2023-04-19T04:50:59;102136.38;;;8.76;72.29
13612;BME280;6877;51.436;6.774;2023-04-19T04:53:26;102145.06;;;8.77;71.72
13612;BME280;6877;51.436;6.774;2023-04-19T04:55:57;102140.66;;;8.73;71.96
13612;BME280;6877;51.436;6.774;2023-04-19T04:58:24;102138.03;;;8.71;71.96
13612;BME280;6877;51.436;6.774;2023-04-19T05:00:55;102131.91;;;8.68;72.08
13612;BME280;6877;51.436;6.774;2023-04-19T05:03:21;102138.84;;;8.66;72.51
13612;BME280;6877;51.436;6.774;2023-04-19T05:05:48;102144.09;;;8.69;72.76
13612;BME280;6877;51.436;6.774;2023-04-19T05:08:14;102134.47;;;8.66;72.92
13612;BME280;6877;51.436;6.774;2023-04-19T05:10:41;102142.38;;;8.71;73.08
13612;BME280;6877;51.436;6.774;2023-04-19T05:13:12;102133.72;;;8.73;72.97
13612;BME280;6877;51.436;6.774;2023-04-19T05:15:38;102151.13;;;8.76;73.07
13612;BME280;6877;51.436;6.774;2023-04-19T05:18:05;102132.88;;;8.79;73.34
13612;BME280;6877;51.436;6.774;2023-04-19T05:20:31;102147.78;;;8.86;73.31
13612;BME280;6877;51.436;6.774;2023-04-19T05:22:59;102145.19;;;8.89;73.29
13612;BME280;6877;51.436;6.774;2023-04-19T05:25:32;102160.84;;;8.88;73.72
13612;BME280;6877;51.436;6.774;2023-04-19T05:27:58;102144.31;;;8.87;73.91
13612;BME280;6877;51.436;6.774;2023-04-19T05:30:24;102155.72;;;8.95;73.68
13612;BME280;6877;51.436;6.774;2023-04-19T05:32:56;102160.28;;;9.18;72.56
13612;BME280;6877;51.436;6.774;2023-04-19T05:35:22;102162.19;;;9.34;71.43
13612;BME280;6877;51.436;6.774;2023-04-19T05:37:54;102156.88;;;9.26;71.53
13612;BME280;6877;51.436;6.774;2023-04-19T05:40:21;102157.81;;;9.35;71.44
13612;BME280;6877;51.436;6.774;2023-04-19T05:42:48;102154.41;;;9.42;70.34
13612;BME280;6877;51.436;6.774;2023-04-19T05:45:20;102163.19;;;9.51;69.45
13612;BME280;6877;51.436;6.774;2023-04-19T05:47:52;102151.84;;;9.46;68.81
13612;BME280;6877;51.436;6.774;2023-04-19T05:50:18;102159.63;;;9.42;68.29
13612;BME280;6877;51.436;6.774;2023-04-19T05:52:46;102153.38;;;9.26;68.54
13612;BME280;6877;51.436;6.774;2023-04-19T05:55:17;102154.13;;;9.11;68.36
13612;BME280;6877;51.436;6.774;2023-04-19T05:57:48;102157.56;;;9.07;67.63
13612;BME280;6877;51.436;6.774;2023-04-19T06:00:15;102164.59;;;9.17;66.54
13612;BME280;6877;51.436;6.774;2023-04-19T06:02:42;102154.34;;;9.36;63.45
13612;BME280;6877;51.436;6.774;2023-04-19T06:05:09;102153.72;;;9.63;62.19
13612;BME280;6877;51.436;6.774;2023-04-19T06:07:36;102160.50;;;9.42;61.78
13612;BME280;6877;51.436;6.774;2023-04-19T06:10:05;102157.63;;;9.12;62.11
13612;BME280;6877;51.436;6.774;2023-04-19T06:12:35;102159.97;;;8.87;61.74
13612;BME280;6877;51.436;6.774;2023-04-19T06:15:01;102168.47;;;8.71;61.92
13612;BME280;6877;51.436;6.774;2023-04-19T06:17:33;102159.66;;;8.63;61.04
13612;BME280;6877;51.436;6.774;2023-04-19T06:19:59;102163.00;;;8.49;60.31
13612;BME280;6877;51.436;6.774;2023-04-19T06:22:26;102163.75;;;8.41;60.92
13612;BME280;6877;51.436;6.774;2023-04-19T06:24:52;102162.81;;;8.37;60.06
13612;BME280;6877;51.436;6.774;2023-04-19T06:27:18;102168.84;;;8.34;59.40
13612;BME280;6877;51.436;6.774;2023-04-19T06:29:45;102162.72;;;8.29;59.15
13612;BME280;6877;51.436;6.774;2023-04-19T06:32:16;102164.41;;;8.29;58.87
13612;BME280;6877;51.436;6.774;2023-04-19T06:34:47;102152.25;;;8.28;58.11
13612;BME280;6877;51.436;6.774;2023-04-19T06:37:14;102158.31;;;8.28;58.13
13612;BME280;6877;51.436;6.774;2023-04-19T06:39:40;102163.63;;;8.33;57.61
13612;BME280;6877;51.436;6.774;2023-04-19T06:42:07;102157.66;;;8.39;57.81
13612;BME280;6877;51.436;6.774;2023-04-19T06:44:33;102166.59;;;8.61;57.11
13612;BME280;6877;51.436;6.774;2023-04-19T06:47:00;102150.31;;;8.80;56.23
13612;BME280;6877;51.436;6.774;2023-04-19T06:49:26;102153.09;;;8.98;55.56
13612;BME280;6877;51.436;6.774;2023-04-19T06:51:52;102149.84;;;9.18;54.76
13612;BME280;6877;51.436;6.774;2023-04-19T06:54:19;102150.00;;;9.39;54.16
13612;BME280;6877;51.436;6.774;2023-04-19T06:56:47;102148.50;;;9.66;53.63
13612;BME280;6877;51.436;6.774;2023-04-19T06:59:17;102153.09;;;9.97;52.76
13612;BME280;6877;51.436;6.774;2023-04-19T07:01:45;102146.16;;;10.03;52.31
13612;BME280;6877;51.436;6.774;2023-04-19T07:04:12;102146.97;;;9.94;52.68
13612;BME280;6877;51.436;6.774;2023-04-19T07:06:38;102139.88;;;9.78;52.23
13612;BME280;6877;51.436;6.774;2023-04-19T07:09:10;102140.75;;;9.78;52.75
13612;BME280;6877;51.436;6.774;2023-04-19T07:11:36;102140.94;;;10.12;51.58
13612;BME280;6877;51.436;6.774;2023-04-19T07:14:08;102145.59;;;10.66;50.11
13612;BME280;6877;51.436;6.774;2023-04-19T07:16:34;102133.47;;;10.98;48.84
13612;BME280;6877;51.436;6.774;2023-04-19T07:19:01;102146.63;;;11.36;48.44
13612;BME280;6877;51.436;6.774;2023-04-19T07:21:27;102147.47;;;11.73;46.99
13612;BME280;6877;51.436;6.774;2023-04-19T07:23:55;102132.50;;;12.26;45.91
13612;BME280;6877;51.436;6.774;2023-04-19T07:26:27;102136.00;;;12.31;44.82
13612;BME280;6877;51.436;6.774;2023-04-19T07:28:53;102127.38;;;11.95;45.51
13612;BME280;6877;51.436;6.774;2023-04-19T07:31:20;102143.94;;;12.17;45.31
13612;BME280;6877;51.436;6.774;2023-04-19T07:33:46;102128.19;;;12.16;44.39
13612;BME280;6877;51.436;6.774;2023-04-19T07:36:13;102139.56;;;12.09;44.83
13612;BME280;6877;51.436;6.774;2023-04-19T07:38:44;102129.91;;;12.24;44.29
13612;BME280;6877;51.436;6.774;2023-04-19T07:41:10;102128.94;;;12.51;44.39
13612;BME280;6877;51.436;6.774;2023-04-19T07:43:39;102132.19;;;12.92;43.33
13612;BME280;6877;51.436;6.774;2023-04-19T07:46:10;102138.19;;;13.15;42.17
13612;BME280;6877;51.436;6.774;2023-04-19T07:48:42;102137.75;;;13.71;40.75
13612;BME280;6877;51.436;6.774;2023-04-19T07:51:15;102140.31;;;13.77;39.12
13612;BME280;6877;51.436;6.774;2023-04-19T07:53:47;102136.19;;;14.37;38.37
13612;BME280;6877;51.436;6.774;2023-04-19T07:56:13;102141.69;;;14.87;36.34
13612;BME280;6877;51.436;6.774;2023-04-19T07:58:40;102134.19;;;15.74;34.95
13612;BME280;6877;51.436;6.774;2023-04-19T08:01:12;102137.63;;;16.24;33.64
13612;BME280;6877;51.436;6.774;2023-04-19T08:03:38;102130.84;;;16.95;32.32
13612;BME280;6877;51.436;6.774;2023-04-19T08:06:05;102127.44;;;17.63;30.63
13612;BME280;6877;51.436;6.774;2023-04-19T08:08:39;102137.19;;;18.87;29.39
13612;BME280;6877;51.436;6.774;2023-04-19T08:11:05;102146.00;;;19.15;27.56
13612;BME280;6877;51.436;6.774;2023-04-19T08:13:36;102140.72;;;19.42;27.33
13612;BME280;6877;51.436;6.774;2023-04-19T08:16:06;102134.06;;;20.55;25.86
13612;BME280;6877;51.436;6.774;2023-04-19T08:18:34;102147.69;;;21.58;24.45
13612;BME280;6877;51.436;6.774;2023-04-19T08:21:01;102145.13;;;20.90;24.75
13612;BME280;6877;51.436;6.774;2023-04-19T08:23:27;102143.72;;;21.24;24.82
13612;BME280;6877;51.436;6.774;2023-04-19T08:25:54;102133.03;;;22.09;23.63
13612;BME280;6877;51.436;6.774;2023-04-19T08:28:20;102136.59;;;22.28;23.40
13612;BME280;6877;51.436;6.774;2023-04-19T08:30:46;102146.13;;;23.09;22.04
13612;BME280;6877;51.436;6.774;2023-04-19T08:33:14;102147.69;;;23.50;21.75
13612;BME280;6877;51.436;6.774;2023-04-19T08:35:40;102150.66;;;23.61;21.81
13612;BME280;6877;51.436;6.774;2023-04-19T08:38:10;102133.91;;;22.49;22.02
13612;BME280;6877;51.436;6.774;2023-04-19T08:40:46;102137.97;;;21.57;22.66
13612;BME280;6877;51.436;6.774;2023-04-19T08:43:20;102133.16;;;22.26;22.46
13612;BME280;6877;51.436;6.774;2023-04-19T08:45:52;102139.66;;;24.02;21.05
13612;BME280;6877;51.436;6.774;2023-04-19T08:48:21;102138.38;;;23.22;20.95
13612;BME280;6877;51.436;6.774;2023-04-19T08:50:55;102144.56;;;22.86;21.93
13612;BME280;6877;51.436;6.774;2023-04-19T08:53:23;102151.72;;;21.88;21.97
13612;BME280;6877;51.436;6.774;2023-04-19T08:55:50;102136.50;;;21.49;22.77
13612;BME280;6877;51.436;6.774;2023-04-19T08:58:19;102133.03;;;21.68;22.88
13612;BME280;6877;51.436;6.774;2023-04-19T09:00:45;102146.38;;;21.88;22.27
13612;BME280;6877;51.436;6.774;2023-04-19T09:03:17;102135.56;;;22.32;21.74
13612;BME280;6877;51.436;6.774;2023-04-19T09:05:43;102143.09;;;21.41;22.52
13612;BME280;6877;51.436;6.774;2023-04-19T09:08:29;102141.66;;;22.34;21.50
13612;BME280;6877;51.436;6.774;2023-04-19T09:10:58;102137.72;;;22.62;21.03
13612;BME280;6877;51.436;6.774;2023-04-19T09:13:26;102134.97;;;21.44;21.95
13612;BME280;6877;51.436;6.774;2023-04-19T09:15:53;102124.09;;;20.60;23.20
13612;BME280;6877;51.436;6.774;2023-04-19T09:18:19;102122.31;;;21.27;22.49
13612;BME280;6877;51.436;6.774;2023-04-19T09:20:46;102124.84;;;21.93;21.76
13612;BME280;6877;51.436;6.774;2023-04-19T09:23:15;102123.59;;;21.61;22.33
13612;BME280;6877;51.436;6.774;2023-04-19T09:26:01;102121.91;;;21.99;21.63
13612;BME280;6877;51.436;6.774;2023-04-19T09:28:28;102127.34;;;22.56;21.44
13612;BME280;6877;51.436;6.774;2023-04-19T09:30:54;102124.88;;;22.12;21.42
13612;BME280;6877;51.436;6.774;2023-04-19T09:33:31;102118.78;;;21.89;21.66
13612;BME280;6877;51.436;6.774;2023-04-19T09:35:59;102121.22;;;22.14;21.16
13612;BME280;6877;51.436;6.774;2023-04-19T09:38:26;102119.13;;;21.61;21.19
13612;BME280;6877;51.436;6.774;2023-04-19T09:41:08;102113.34;;;21.29;21.39
13612;BME280;6877;51.436;6.774;2023-04-19T09:43:35;102129.75;;;20.75;21.82
13612;BME280;6877;51.436;6.774;2023-04-19T09:46:07;102106.41;;;20.59;22.13
13612;BME280;6877;51.436;6.774;2023-04-19T09:48:34;102123.16;;;20.38;22.63
13612;BME280;6877;51.436;6.774;2023-04-19T09:51:02;102106.13;;;20.89;22.19
13612;BME280;6877;51.436;6.774;2023-04-19T09:53:30;102089.22;;;20.68;22.42
13612;BME280;6877;51.436;6.774;2023-04-19T09:56:00;102083.19;;;21.29;21.08
13612;BME280;6877;51.436;6.774;2023-04-19T09:58:26;102097.13;;;20.70;21.22
13612;BME280;6877;51.436;6.774;2023-04-19T10:00:54;102096.25;;;19.49;22.85
13612;BME280;6877;51.436;6.774;2023-04-19T10:03:28;102105.00;;;18.97;23.62
13612;BME280;6877;51.436;6.774;2023-04-19T10:05:56;102107.72;;;19.49;22.91
13612;BME280;6877;51.436;6.774;2023-04-19T10:08:28;102090.97;;;18.94;23.52
13612;BME280;6877;51.436;6.774;2023-04-19T10:10:55;102107.19;;;18.85;23.62
13612;BME280;6877;51.436;6.774;2023-04-19T10:13:26;102089.34;;;19.43;23.17
13612;BME280;6877;51.436;6.774;2023-04-19T10:15:53;102103.19;;;18.99;23.35
13612;BME280;6877;51.436;6.774;2023-04-19T10:18:20;102097.56;;;18.82;23.21
13612;BME280;6877;51.436;6.774;2023-04-19T10:20:58;102093.50;;;18.98;23.60
13612;BME280;6877;51.436;6.774;2023-04-19T10:23:26;102082.13;;;18.65;24.13
13612;BME280;6877;51.436;6.774;2023-04-19T10:25:55;102081.34;;;18.02;24.65
13612;BME280;6877;51.436;6.774;2023-04-19T10:28:28;102079.06;;;17.56;25.75
13612;BME280;6877;51.436;6.774;2023-04-19T10:31:02;102087.09;;;17.19;25.98
13612;BME280;6877;51.436;6.774;2023-04-19T10:33:38;102090.78;;;17.80;24.83
13612;BME280;6877;51.436;6.774;2023-04-19T10:36:10;102079.56;;;18.03;24.30
13612;BME280;6877;51.436;6.774;2023-04-19T10:41:05;102079.78;;;19.64;23.23
13612;BME280;6877;51.436;6.774;2023-04-19T10:43:37;102080.88;;;19.58;22.71
13612;BME280;6877;51.436;6.774;2023-04-19T10:49:12;102066.91;;;19.00;23.66
13612;BME280;6877;51.436;6.774;2023-04-19T10:51:39;102077.00;;;19.15;23.59
13612;BME280;6877;51.436;6.774;2023-04-19T10:57:02;102071.41;;;17.79;25.40
13612;BME280;6877;51.436;6.774;2023-04-19T10:59:39;102071.09;;;18.51;24.61
13612;BME280;6877;51.436;6.774;2023-04-19T11:02:26;102067.25;;;17.69;25.29
13612;BME280;6877;51.436;6.774;2023-04-19T11:04:58;102063.47;;;17.79;25.20
13612;BME280;6877;51.436;6.774;2023-04-19T11:07:25;102065.97;;;18.15;24.27
13612;BME280;6877;51.436;6.774;2023-04-19T11:09:52;102083.84;;;18.38;24.03
13612;BME280;6877;51.436;6.774;2023-04-19T11:12:23;102063.56;;;18.06;24.51
13612;BME280;6877;51.436;6.774;2023-04-19T11:14:57;102054.88;;;15.80;27.34
13612;BME280;6877;51.436;6.774;2023-04-19T11:17:28;102062.13;;;15.16;28.33
13612;BME280;6877;51.436;6.774;2023-04-19T11:20:00;102051.78;;;15.05;28.26
13612;BME280;6877;51.436;6.774;2023-04-19T11:22:34;102044.16;;;15.40;27.86
13612;BME280;6877;51.436;6.774;2023-04-19T11:25:04;102043.09;;;14.99;28.88
13612;BME280;6877;51.436;6.774;2023-04-19T11:27:32;102037.69;;;15.58;27.60
13612;BME280;6877;51.436;6.774;2023-04-19T11:30:07;102031.75;;;14.94;29.02
13612;BME280;6877;51.436;6.774;2023-04-19T11:32:35;102027.97;;;14.54;29.94
13612;BME280;6877;51.436;6.774;2023-04-19T11:35:07;102030.56;;;13.91;30.71
13612;BME280;6877;51.436;6.774;2023-04-19T11:37:36;102019.72;;;13.38;31.01
13612;BME280;6877;51.436;6.774;2023-04-19T11:40:04;102015.19;;;13.53;30.23
13612;BME280;6877;51.436;6.774;2023-04-19T11:42:32;102017.72;;;13.62;29.60
13612;BME280;6877;51.436;6.774;2023-04-19T11:44:58;102011.75;;;13.46;29.72
13612;BME280;6877;51.436;6.774;2023-04-19T11:47:26;102012.81;;;13.28;30.07
13612;BME280;6877;51.436;6.774;2023-04-19T11:49:55;101997.03;;;13.23;30.48
13612;BME280;6877;51.436;6.774;2023-04-19T11:52:24;101993.53;;;13.28;31.21
13612;BME280;6877;51.436;6.774;2023-04-19T11:55:19;101994.16;;;13.51;31.08
13612;BME280;6877;51.436;6.774;2023-04-19T11:57:46;101994.84;;;13.68;31.17
13612;BME280;6877;51.436;6.774;2023-04-19T12:00:13;101986.69;;;13.90;30.80
13612;BME280;6877;51.436;6.774;2023-04-19T12:02:42;101984.69;;;14.10;30.00
13612;BME280;6877;51.436;6.774;2023-04-19T12:05:14;101966.28;;;14.06;30.07
13612;BME280;6877;51.436;6.774;2023-04-19T12:08:01;101963.75;;;14.01;30.30
13612;BME280;6877;51.436;6.774;2023-04-19T12:10:29;101962.50;;;13.60;30.11
13612;BME280;6877;51.436;6.774;2023-04-19T12:12:56;101973.94;;;13.56;30.24
13612;BME280;6877;51.436;6.774;2023-04-19T12:15:44;101966.03;;;13.58;29.39
13612;BME280;6877;51.436;6.774;2023-04-19T12:18:16;101962.75;;;13.40;29.67
13612;BME280;6877;51.436;6.774;2023-04-19T12:20:49;101969.66;;;13.46;30.07
13612;BME280;6877;51.436;6.774;2023-04-19T12:23:17;101957.34;;;13.51;29.49
13612;BME280;6877;51.436;6.774;2023-04-19T12:25:48;101962.50;;;13.60;29.44
13612;BME280;6877;51.436;6.774;2023-04-19T12:28:20;101956.69;;;13.34;28.69
13612;BME280;6877;51.436;6.774;2023-04-19T12:30:51;101957.72;;;13.13;28.97
13612;BME280;6877;51.436;6.774;2023-04-19T12:33:18;101952.53;;;13.08;29.49
13612;BME280;6877;51.436;6.774;2023-04-19T12:35:49;101944.72;;;12.97;30.08
13612;BME280;6877;51.436;6.774;2023-04-19T12:38:21;101949.97;;;13.02;30.66
13612;BME280;6877;51.436;6.774;2023-04-19T12:40:47;101948.94;;;13.14;30.91
13612;BME280;6877;51.436;6.774;2023-04-19T12:43:13;101945.28;;;13.32;30.02
13612;BME280;6877;51.436;6.774;2023-04-19T12:45:45;101936.53;;;13.31;30.33
13612;BME280;6877;51.436;6.774;2023-04-19T12:48:11;101946.94;;;13.42;30.55
13612;BME280;6877;51.436;6.774;2023-04-19T12:50:38;101954.66;;;13.57;30.01
13612;BME280;6877;51.436;6.774;2023-04-19T12:53:09;101944.94;;;13.62;29.19
13612;BME280;6877;51.436;6.774;2023-04-19T12:55:35;101941.50;;;13.57;29.04
13612;BME280;6877;51.436;6.774;2023-04-19T12:58:02;101951.19;;;13.54;29.33
13612;BME280;6877;51.436;6.774;2023-04-19T13:00:28;101931.03;;;13.53;29.46
13612;BME280;6877;51.436;6.774;2023-04-19T13:03:00;101934.47;;;13.59;29.59
13612;BME280;6877;51.436;6.774;2023-04-19T13:05:26;101933.56;;;13.62;29.54
13612;BME280;6877;51.436;6.774;2023-04-19T13:07:53;101934.66;;;13.44;28.75
13612;BME280;6877;51.436;6.774;2023-04-19T13:10:24;101942.69;;;13.29;28.65
13612;BME280;6877;51.436;6.774;2023-04-19T13:12:51;101941.78;;;13.30;29.47
13612;BME280;6877;51.436;6.774;2023-04-19T13:15:17;101925.06;;;13.40;29.36
13612;BME280;6877;51.436;6.774;2023-04-19T13:17:49;101918.75;;;13.52;29.58
13612;BME280;6877;51.436;6.774;2023-04-19T13:20:18;101934.69;;;13.41;29.31
13612;BME280;6877;51.436;6.774;2023-04-19T13:22:45;101936.56;;;13.27;29.68